メヘラーバード国際空港(テヘラン)の過去48時間の天気

メヘラーバード国際空港(テヘラン) (Tehran-Mehrabad)

現在時刻: 9/28 11:46 +0330 (9/28 08:16 UTC) 以下の時間は現地時間です。

過去48時間のMETAR気象情報
時間 風向 風速(m/s) 視程 気温(℃) 湿度(%) 気圧(hPa) 天気現象
28 11:30 南南西 3 10km以上 25 30 1020
28 11:00 西 5 10km以上 25 30 1020
28 10:30 南西 4 10km以上 24 31 1020
28 10:00 西 5 10km以上 23 38 1020
28 09:30 西 5 10km以上 22 41 1020
28 09:00 西 5 10km以上 22 41 1020
28 08:30 西 5 10km以上 21 43 1020
28 08:00 西 6 10km以上 20 49 1020
28 07:30 西北西 3 10km以上 19 52 1019
28 07:00 西 4 10km以上 18 56 1019
28 06:30 西北西 5 10km以上 17 59 1018
28 06:00 西 5 10km以上 16 63 1018
28 05:30 西 4 10km以上 16 68 1018
28 05:00 西北西 5 10km以上 17 63 1018
28 04:30 西北西 5 10km以上 17 63 1018
28 04:00 西北西 5 10km以上 17 63 1017
28 03:30 西北西 5 10km以上 17 63 1017
28 03:00 西北西 5 10km以上 17 63 1017
28 02:30 西 5 10km以上 18 60 1017
28 02:00 西 5 10km以上 18 60 1017
28 01:30 西 6 10km以上 18 60 1017
28 01:00 西 6 10km以上 19 56 1016
28 00:30 西 5 10km以上 20 49 1016
28 00:00 西 6 10km以上 20 49 1016
27 23:30 西 5 10km以上 21 46 1016
27 23:00 西 6 10km以上 21 46 1016
27 22:30 西 6 10km以上 22 41 1015
27 22:00 西 6 10km以上 22 41 1015
27 21:30 西 5 10km以上 23 33 1015
27 21:00 西 5 10km以上 24 31 1015
27 20:30 西北西 4 10km以上 25 24 1015
27 20:00 西 3 10km以上 28 13 1015
27 19:30 北西 3 10km以上 28 14 1014
27 19:00 北西 4 10km以上 29 13 1014
27 18:30 西北西 5 10km以上 29 13 1014
27 18:00 北西 5 10km以上 29 13 1013
27 17:30 西 7 10km以上 30 13 1013
27 17:00 西 9 10km以上 31 11 1013
27 16:30 北西 6 10km以上 31 11 1013
27 16:00 西北西 7 10km以上 32 9 1013
27 15:30 西北西 9 10km以上 32 9 1013
27 15:00 西 4 10km以上 32 11 1013
27 14:30 西 4 10km以上 31 13 1013
27 14:00 西 5 10km以上 31 12 1014
27 13:30 南南東 4 10km以上 31 11 1014
27 13:00 南南東 3 10km以上 30 12 1014
27 12:30 西南西 2 10km以上 30 12 1015
27 12:00 南西 3 10km以上 29 13 1015
27 11:30 南西 4 10km以上 29 14 1015
27 11:00 南南東 3 10km以上 29 10 1016
27 10:30 南東 4 10km以上 28 11 1016
27 10:00 南東 3 10km以上 28 11 1016
27 09:30 南東 3 10km以上 27 13 1016
27 09:00 南南東 2 10km以上 27 15 1016
27 08:30 南西 2 10km以上 26 17 1015
27 08:00 静穏 0 10km以上 26 15 1015
27 07:30 静穏 0 10km以上 24 15 1015
27 07:00 静穏 0 10km以上 23 20 1015
27 06:30 北北西 3 10km以上 22 16 1014
27 06:00 北北西 2 10km以上 22 16 1014
27 05:30 北北西 2 10km以上 22 15 1014
27 05:00 北西 3 10km以上 21 17 1014
27 04:30 西北西 3 10km以上 21 21 1014
27 04:00 2 10km以上 21 26 1014
27 03:30 北北東 2 10km以上 21 26 1013
27 03:00 北北東 2 10km以上 22 23 1013
27 02:30 2 10km以上 22 23 1013
27 02:00 2 10km以上 23 22 1013
27 01:30 3 10km以上 22 25 1013
27 01:00 北北東 3 10km以上 24 19 1013
27 00:30 3 10km以上 23 25 1013
27 00:00 3 10km以上 23 25 1013
26 23:30 3 10km以上 23 25 1013
26 23:00 北北東 2 10km以上 23 23 1013
26 22:30 2 10km以上 24 22 1013
26 22:00 2 10km以上 23 25 1013
26 21:30 静穏 0 10km以上 24 24 1013
26 21:00 静穏 0 10km以上 24 22 1013
26 20:30 静穏 0 10km以上 25 22 1012
26 20:00 北北西 2 10km以上 25 22 1012
26 19:30 静穏 0 10km以上 27 17 1012
26 19:00 南東 2 10km以上 29 13 1012
26 18:30 3 10km以上 29 12 1012
26 18:00 南南東 3 10km以上 30 10 1011
26 17:30 3 10km以上 31 10 1011
26 17:00 南南西 3 10km以上 31 10 1011
26 16:30 南南西 4 10km以上 32 8 1011
26 16:00 南南西 4 10km以上 32 10 1011
26 15:30 南南西 3 8000m 32 10 1012
26 15:00 南南西 3 8000m 32 10 1012
26 14:30 南南東 2 8000m 31 11 1012
26 14:00 南南東 2 8000m 32 10 1012
26 13:30 西 2 8000m 31 12 1013
26 13:00 静穏 0 8000m 31 12 1013
26 12:30 南南西 3 8000m 30 12 1014
26 12:00 南南西 4 8000m 30 13 1014
OIII 280800Z 20006KT 9999 FEW040 25/06 Q1020 A3012 NOSIG
OIII 280730Z 26010KT 9999 FEW040 25/06 Q1020 A3013
OIII 280700Z 23008KT 9999 FEW040 24/06 Q1020 A3013 NOSIG
OIII 280630Z 27010KT 9999 FEW040 23/08 Q1020 A3013
OIII 280600Z 26010KT 9999 FEW040 22/08 Q1020 A3013 NOSIG
OIII 280530Z 28010KT 9999 FEW040 22/08 Q1020 A3013
OIII 280500Z 27010KT 9999 FEW040 21/08 Q1020 A3013 NOSIG
OIII 280430Z 28012KT 9999 FEW040 20/09 Q1020 A3012
OIII 280400Z 30006KT 9999 FEW040 19/09 Q1019 A3011 NOSIG
OIII 280330Z 28008KT 9999 FEW040 18/09 Q1019 A3010
OIII 280300Z 30010KT 9999 FEW040 17/09 Q1018 A3009
OIII 280230Z 28010KT 9999 FEW040 16/09 Q1018 A3008
OIII 280200Z 28008KT 9999 FEW040 16/10 Q1018 A3007
OIII 280130Z 29010KT 9999 FEW090 17/10 Q1018 A3007
OIII 280100Z 29010KT 9999 FEW090 17/10 Q1018 A3006 NOSIG
OIII 280030Z 30010KT 9999 FEW090 17/10 Q1017 A3005 NOSIG
OIII 280000Z 30010KT 9999 FEW090 17/10 Q1017 A3004
OIII 272330Z 29010KT 9999 FEW040 17/10 Q1017 A3004
OIII 272300Z 28010KT 9999 FEW040 18/10 Q1017 A3004
OIII 272230Z 28010KT 9999 FEW040 18/10 Q1017 A3003
OIII 272200Z 27012KT 9999 FEW040 18/10 Q1017 A3003 NOSIG
OIII 272130Z 28012KT 9999 FEW040 19/10 Q1016 A3003
OIII 272100Z 28010KT 9999 FEW040 20/09 Q1016 A3002
OIII 272030Z 27012KT 9999 FEW040 20/09 Q1016 A3001
OIII 272000Z 28010KT 9999 FEW040 21/09 Q1016 A3001
OIII 271930Z 26012KT 9999 FEW040 21/09 Q1016 A3001
OIII 271900Z 27012KT 9999 FEW040 22/08 Q1015 A3000 NOSIG
OIII 271830Z 27012KT 9999 FEW040 22/08 Q1015 A2999
OIII 271800Z 27010KT 9999 FEW040 23/06 Q1015 A2999
OIII 271730Z 27010KT 9999 SCT040 24/06 Q1015 A2998
OIII 271700Z 29008KT 9999 SCT040 25/03 Q1015 A2998 NOSIG
OIII 271630Z 27006KT 9999 SCT040 28/M03 Q1015 A2997
OIII 271600Z 31006KT 9999 SCT040 28/M02 Q1014 A2996 NOSIG
OIII 271530Z 32008KT 9999 SCT040 29/M02 Q1014 A2995
OIII 271500Z 30010KT 9999 SCT040 29/M02 Q1014 A2994
OIII 271430Z 31010KT 9999 FEW040 29/M02 Q1013 A2993
OIII 271400Z 28014KT 9999 FEW040 30/M01 Q1013 A2992 TEMPO 28024KT
OIII 271330Z 28018KT 9999 FEW040 31/M03 Q1013 A2992
OIII 271300Z 31012KT 9999 FEW040 31/M03 Q1013 A2992 NOSIG
OIII 271230Z 30014KT 9999 FEW040 32/M05 Q1013 A2992
OIII 271200Z 30018KT 9999 FEW040 32/M05 Q1013 A2992 NOSIG
OIII 271130Z 28008G18KT 9999 FEW040 32/M02 Q1013 A2993
OIII 271100Z 28008KT 9999 FEW040 31/M01 Q1013 A2994 NOSIG
OIII 271030Z 26010KT 9999 FEW040 31/M02 Q1014 A2995
OIII 271000Z 16008KT 9999 FEW040 31/M03 Q1014 A2996 NOSIG
OIII 270930Z 15006KT 9999 FEW040 30/M03 Q1014 A2996
OIII 270900Z 24004KT CAVOK 30/M03 Q1015 A2998 NOSIG
OIII 270830Z 22006KT CAVOK 29/M02 Q1015 A2999
OIII 270800Z 22008KT CAVOK 29/M01 Q1015 A3000 NOSIG
OIII 270730Z 15006KT CAVOK 29/M06 Q1016 A3000
OIII 270700Z 14008KT CAVOK 28/M05 Q1016 A3001 NOSIG
OIII 270630Z 14006KT CAVOK 28/M05 Q1016 A3001
OIII 270600Z 13006KT CAVOK 27/M04 Q1016 A3001 NOSIG
OIII 270530Z 15004KT CAVOK 27/M02 Q1016 A3001
OIII 270500Z 22004KT CAVOK 26/M01 Q1015 A3000 NOSIG
OIII 270430Z 00000KT CAVOK 26/M03 Q1015 A2999
OIII 270400Z 00000KT CAVOK 24/M04 Q1015 A2999 NOSIG
OIII 270330Z 00000KT CAVOK 23/M01 Q1015 A2998
OIII 270300Z 34006KT CAVOK 22/M05 Q1014 A2997 NOSIG
OIII 270230Z 33004KT CAVOK 22/M05 Q1014 A2997
OIII 270200Z 34004KT CAVOK 22/M06 Q1014 A2996 NOSIG
OIII 270130Z 31006KT CAVOK 21/M05 Q1014 A2995
OIII 270100Z 30006KT CAVOK 21/M02 Q1014 A2995 NOSIG
OIII 270030Z 36004KT CAVOK 21/01 Q1014 A2994
OIII 270000Z 03004KT CAVOK 21/01 Q1013 A2994 NOSIG
OIII 262330Z 03004KT CAVOK 22/00 Q1013 A2994
OIII 262300Z 35004KT CAVOK 22/M00 Q1013 A2993 NOSIG
OIII 262230Z 35004KT CAVOK 23/M00 Q1013 A2993
OIII 262200Z 36006KT CAVOK 22/01 Q1013 A2993 NOSIG
OIII 262130Z 02006KT CAVOK 24/M01 Q1013 A2993
OIII 262100Z 36006KT CAVOK 23/02 Q1013 A2993 NOSIG
OIII 262030Z 36006KT CAVOK 23/02 Q1013 A2993
OIII 262000Z 01006KT CAVOK 23/02 Q1013 A2993 NOSIG
OIII 261930Z 02004KT CAVOK 23/01 Q1013 A2993
OIII 261900Z 35004KT CAVOK 24/01 Q1013 A2993 NOSIG
OIII 261830Z 35004KT CAVOK 23/02 Q1013 A2993
OIII 261800Z 00000KT CAVOK 24/02 Q1013 A2992 NOSIG
OIII 261730Z 00000KT CAVOK 24/01 Q1013 A2992
OIII 261700Z 00000KT CAVOK 25/02 Q1012 A2991 NOSIG
OIII 261630Z 33004KT CAVOK 25/02 Q1012 A2990
OIII 261600Z 00000KT CAVOK 27/M00 Q1012 A2990 NOSIG
OIII 261530Z 14004KT CAVOK 29/M02 Q1012 A2989
OIII 261500Z 17006KT CAVOK 29/M03 Q1012 A2988 NOSIG
OIII 261430Z 16006KT CAVOK 30/M05 Q1011 A2988
OIII 261400Z 17006KT CAVOK 31/M04 Q1011 A2987 NOSIG
OIII 261330Z 20006KT CAVOK 31/M04 Q1011 A2987
OIII 261300Z 20008KT CAVOK 32/M07 Q1011 A2988
OIII 261230Z 20008KT CAVOK 32/M04 Q1011 A2988
OIII 261200Z 21006KT 8000 NSC 32/M04 Q1012 A2989 NOSIG
OIII 261130Z 21006KT 8000 NSC 32/M04 Q1012 A2990
OIII 261100Z 15004KT 8000 NSC 31/M03 Q1012 A2990 NOSIG
OIII 261030Z 15004KT 8000 NSC 32/M04 Q1012 A2991
OIII 261000Z 26004KT 8000 NSC 31/M02 Q1013 A2992 NOSIG
OIII 260930Z 00000KT 8000 NSC 31/M02 Q1013 A2993
OIII 260900Z 20006KT 8000 NSC 30/M02 Q1014 A2994 NOSIG
OIII 260830Z 20008KT 8000 NSC 30/M01 Q1014 A2995